createdAt,value
2019-02-08T08:24:12.792Z,7.80
2019-02-08T08:27:08.825Z,7.60
2019-02-08T08:30:00.058Z,4.30
2019-02-08T08:32:43.903Z,3.60
2019-02-08T08:35:51.527Z,3.50
2019-02-08T08:39:03.898Z,3.00
2019-02-08T08:42:04.020Z,2.60
2019-02-08T08:45:26.839Z,2.40
2019-02-08T08:48:36.028Z,2.30
2019-02-08T09:02:27.147Z,2.50
2019-02-08T09:05:35.876Z,2.80
2019-02-08T09:09:04.089Z,2.50
2019-02-08T09:12:07.908Z,2.40
2019-02-08T09:15:02.078Z,2.40
2019-02-08T09:18:13.685Z,2.30
2019-02-08T09:21:38.186Z,2.30
2019-02-08T09:24:25.100Z,2.20
2019-02-08T09:27:32.103Z,2.30
2019-02-08T09:30:36.010Z,2.30
2019-02-08T09:33:42.710Z,2.30
2019-02-08T09:36:38.755Z,2.80
2019-02-08T09:39:34.839Z,2.80
2019-02-08T09:42:29.302Z,3.20
2019-02-08T09:45:41.811Z,3.00
2019-02-08T09:48:56.848Z,3.20
2019-02-08T09:51:53.567Z,3.20
2019-02-08T09:55:13.024Z,4.00
2019-02-08T09:58:16.932Z,4.00
2019-02-08T10:01:28.634Z,4.20
2019-02-08T10:10:39.363Z,4.40
2019-02-08T10:13:39.656Z,4.70
2019-02-08T10:17:13.193Z,4.70
2019-02-08T10:20:19.747Z,4.80
2019-02-08T10:23:41.207Z,4.90
2019-02-08T10:26:55.340Z,4.90
2019-02-08T10:30:19.434Z,5.10
2019-02-08T10:33:28.529Z,5.40
2019-02-08T10:36:26.281Z,5.50
2019-02-08T10:39:37.181Z,5.50
2019-02-08T10:42:45.355Z,5.60
2019-02-08T10:46:00.889Z,5.80
2019-02-08T10:49:04.749Z,6.00
2019-02-08T10:52:13.421Z,5.90
2019-02-08T10:55:30.386Z,6.20
2019-02-08T10:58:35.807Z,6.40
2019-02-08T11:01:47.869Z,6.50
2019-02-08T11:05:12.515Z,6.40
2019-02-08T11:08:32.791Z,6.50
2019-02-08T11:11:49.936Z,6.60
2019-02-08T11:19:30.160Z,6.80
2019-02-08T11:22:04.382Z,6.90
2019-02-08T11:24:32.179Z,7.00
2019-02-08T11:27:02.786Z,6.90
2019-02-08T11:29:30.466Z,7.00
2019-02-08T11:31:58.025Z,6.90
2019-02-08T11:34:26.334Z,7.20
2019-02-08T11:36:54.131Z,7.20
2019-02-08T11:39:23.506Z,7.20
2019-02-08T11:41:51.058Z,7.20
2019-02-08T11:44:20.216Z,7.50
2019-02-08T11:46:47.962Z,7.40
2019-02-08T11:49:22.946Z,7.30
2019-02-08T11:51:50.862Z,7.40
2019-02-08T11:54:18.415Z,7.40
2019-02-08T11:56:46.465Z,7.50
2019-02-08T11:59:14.160Z,7.50
2019-02-08T12:01:43.787Z,7.70
2019-02-08T12:04:11.623Z,7.70
2019-02-08T12:06:39.550Z,7.80
2019-02-08T12:09:18.329Z,7.90
2019-02-08T12:11:46.195Z,7.90
2019-02-08T12:14:16.034Z,7.80
2019-02-08T12:16:44.353Z,8.00
2019-02-08T12:19:12.514Z,8.00
2019-02-08T12:21:40.252Z,8.10
2019-02-08T12:24:09.293Z,8.00
2019-02-08T12:26:38.114Z,8.20
2019-02-08T12:29:07.045Z,8.20
2019-02-08T12:31:35.114Z,8.20
2019-02-08T12:34:03.044Z,8.40
2019-02-08T12:36:30.898Z,8.30
2019-02-08T12:38:59.052Z,8.20
2019-02-08T12:41:27.371Z,8.20
2019-02-08T12:43:55.328Z,8.20
2019-02-08T12:46:23.318Z,8.10
2019-02-08T12:48:51.688Z,8.20
2019-02-08T12:51:19.864Z,8.10
2019-02-08T12:53:48.015Z,8.00
2019-02-08T12:56:16.314Z,8.10
2019-02-08T12:58:44.463Z,8.10
2019-02-08T13:01:12.560Z,8.20
2019-02-08T13:03:40.583Z,8.10
2019-02-08T13:06:08.896Z,8.00
2019-02-08T13:08:37.473Z,8.00
2019-02-08T13:11:05.447Z,8.00
2019-02-08T13:13:33.954Z,8.00
2019-02-08T13:16:01.807Z,8.00
2019-02-08T13:18:32.278Z,8.10
2019-02-08T13:21:00.658Z,8.20
2019-02-08T13:23:31.460Z,8.20
2019-02-08T13:26:00.294Z,8.30
2019-02-08T13:28:29.233Z,8.30
2019-02-08T13:30:57.788Z,8.30
2019-02-08T13:33:25.959Z,8.30
2019-02-08T13:35:54.452Z,8.30
2019-02-08T13:38:23.134Z,8.30
2019-02-08T13:40:50.736Z,8.30
2019-02-08T13:43:18.977Z,8.30
2019-02-08T13:45:50.578Z,8.20
2019-02-08T13:48:19.348Z,8.30
2019-02-08T13:50:47.876Z,8.30
2019-02-08T13:53:15.446Z,8.10
2019-02-08T13:55:45.475Z,8.20
2019-02-08T13:58:13.956Z,8.40
2019-02-08T14:00:43.848Z,8.40
2019-02-08T14:03:12.424Z,8.30
2019-02-08T14:05:41.158Z,8.30
2019-02-08T14:08:09.770Z,8.20
2019-02-08T14:10:38.640Z,8.10
2019-02-08T14:13:07.136Z,8.10
2019-02-08T14:15:36.047Z,8.10
2019-02-08T14:18:05.002Z,8.10
2019-02-08T14:20:33.792Z,8.10
2019-02-08T14:23:01.488Z,8.10
2019-02-08T14:25:29.801Z,8.10
2019-02-08T14:27:58.788Z,8.00
2019-02-08T14:30:31.708Z,8.00
2019-02-08T14:33:00.042Z,8.00
2019-02-08T14:35:29.307Z,8.00
2019-02-08T14:37:58.509Z,8.00
2019-02-08T14:40:26.248Z,7.90
2019-02-08T14:42:55.146Z,7.80
2019-02-08T14:45:23.267Z,7.80
2019-02-08T14:47:51.563Z,7.80
2019-02-08T14:50:21.510Z,7.70
2019-02-08T14:52:50.114Z,7.60
2019-02-08T14:55:18.447Z,7.60
2019-02-08T14:57:46.233Z,7.60
2019-02-08T15:00:17.472Z,8.30
2019-02-08T15:02:45.186Z,7.50
2019-02-08T15:05:14.359Z,7.30
2019-02-08T15:07:42.311Z,7.30
2019-02-08T15:10:17.777Z,7.30
2019-02-08T15:12:45.931Z,7.10
2019-02-08T15:15:14.253Z,7.10
2019-02-08T15:17:44.108Z,6.70
2019-02-08T15:20:15.944Z,7.10
2019-02-08T15:22:44.166Z,7.10
2019-02-08T15:25:12.452Z,7.10
2019-02-08T15:27:45.595Z,7.10
2019-02-08T15:30:23.136Z,7.10
2019-02-08T15:38:56.907Z,6.80
2019-02-08T15:41:25.078Z,6.70
2019-02-08T15:43:53.475Z,6.60
2019-02-08T15:46:29.772Z,6.40
2019-02-08T15:49:00.621Z,6.20
2019-02-08T15:51:29.631Z,6.10
2019-02-08T15:54:00.884Z,5.90
2019-02-08T15:59:07.660Z,5.70
2019-02-08T16:01:35.328Z,5.50
2019-02-08T16:04:03.210Z,5.40
2019-02-08T16:06:32.220Z,5.00
2019-02-08T16:08:59.863Z,5.20
2019-02-08T16:17:16.978Z,4.00
2019-02-08T16:19:46.240Z,4.20
2019-02-08T16:23:10.817Z,3.70
2019-02-08T16:28:59.286Z,3.60
2019-02-08T16:31:28.539Z,3.30
2019-02-08T16:33:56.695Z,3.30
2019-02-08T16:36:27.093Z,3.00
2019-02-08T16:38:57.412Z,2.90
2019-02-08T16:41:25.858Z,1.80
2019-02-08T16:43:56.721Z,2.90
2019-02-08T16:46:25.552Z,2.70
2019-02-08T16:48:55.514Z,2.70
2019-02-08T16:51:23.227Z,2.30
2019-02-08T16:53:53.841Z,2.40
2019-02-08T16:56:21.736Z,2.20
2019-02-08T16:58:49.314Z,2.20
2019-02-08T17:01:16.848Z,2.20
2019-02-08T17:03:44.428Z,2.10
2019-02-08T17:06:12.187Z,2.10
2019-02-08T17:08:39.713Z,1.90
2019-02-08T17:11:07.593Z,1.80
2019-02-08T17:13:36.256Z,2.00
2019-02-08T17:16:05.195Z,2.00
2019-02-08T17:18:32.767Z,1.90
2019-02-08T17:21:00.886Z,1.80
2019-02-08T17:23:29.227Z,1.80
2019-02-08T17:25:58.039Z,1.90
2019-02-08T17:28:27.279Z,1.80
2019-02-08T17:30:57.587Z,1.90
2019-02-08T17:33:25.651Z,1.90
2019-02-08T17:35:54.293Z,1.90
2019-02-08T17:38:22.558Z,1.90
2019-02-08T17:40:51.818Z,1.90
2019-02-08T17:43:19.555Z,1.80
2019-02-08T22:37:10.623Z,-2.00
2019-02-08T22:39:38.559Z,-2.00
2019-02-08T22:42:06.373Z,-2.00
2019-02-08T22:47:01.871Z,-2.00
2019-02-08T22:52:00.860Z,-2.00
2019-02-08T22:54:28.624Z,-2.10
2019-02-08T22:56:56.969Z,-2.00
2019-02-08T22:59:24.823Z,-2.00
2019-02-08T23:01:53.333Z,-2.00
2019-02-08T23:04:20.841Z,-2.10
2019-02-08T23:06:48.492Z,-2.10
2019-02-08T23:09:19.793Z,-2.10
2019-02-08T23:11:47.375Z,-2.30
2019-02-08T23:14:15.023Z,-2.10
2019-02-08T23:16:42.694Z,-2.20
2019-02-08T23:19:10.302Z,-2.20
2019-02-08T23:21:37.971Z,-2.10
2019-02-08T23:24:05.593Z,-2.10
2019-02-08T23:26:33.217Z,-2.10
2019-02-08T23:29:00.891Z,-2.10
2019-02-08T23:31:28.464Z,-2.10
2019-02-08T23:33:56.026Z,-2.00
2019-02-08T23:36:23.886Z,-2.00
2019-02-08T23:38:51.588Z,-2.20
2019-02-08T23:41:19.363Z,-2.20
2019-02-08T23:43:47.401Z,-2.30
2019-02-08T23:46:15.063Z,-2.10
2019-02-08T23:48:42.715Z,-0.10
2019-02-08T23:51:10.316Z,-2.00
2019-02-08T23:53:38.050Z,-1.90
2019-02-08T23:56:06.081Z,-2.00
2019-02-08T23:58:33.971Z,-2.00
